sensor_id;sensor_type;location;lat;lon;timestamp;P1;durP1;ratioP1;P2;durP2;ratioP2
31091;SDS011;67728;53.122;12.776;2024-02-04T00:00:33;602.28;;;229.50;;
31091;SDS011;67728;53.122;12.776;2024-02-04T00:02:08;593.97;;;221.07;;
31091;SDS011;67728;53.122;12.776;2024-02-04T00:03:44;592.88;;;221.10;;
31091;SDS011;67728;53.122;12.776;2024-02-04T00:05:15;593.50;;;217.95;;
31091;SDS011;67728;53.122;12.776;2024-02-04T00:06:46;597.80;;;229.82;;
31091;SDS011;67728;53.122;12.776;2024-02-04T00:08:18;593.13;;;217.65;;
31091;SDS011;67728;53.122;12.776;2024-02-04T00:09:48;595.17;;;219.50;;
31091;SDS011;67728;53.122;12.776;2024-02-04T00:11:20;596.17;;;230.50;;
31091;SDS011;67728;53.122;12.776;2024-02-04T00:12:51;593.22;;;216.35;;
31091;SDS011;67728;53.122;12.776;2024-02-04T00:14:22;598.50;;;227.57;;
31091;SDS011;67728;53.122;12.776;2024-02-04T00:15:53;600.00;;;227.00;;
31091;SDS011;67728;53.122;12.776;2024-02-04T00:17:26;597.15;;;224.98;;
31091;SDS011;67728;53.122;12.776;2024-02-04T00:19:00;597.55;;;222.13;;
31091;SDS011;67728;53.122;12.776;2024-02-04T00:20:30;600.30;;;227.70;;
31091;SDS011;67728;53.122;12.776;2024-02-04T00:22:03;600.58;;;226.95;;
31091;SDS011;67728;53.122;12.776;2024-02-04T00:23:34;599.08;;;227.38;;
31091;SDS011;67728;53.122;12.776;2024-02-04T00:25:05;601.55;;;230.75;;
31091;SDS011;67728;53.122;12.776;2024-02-04T00:26:41;601.65;;;228.27;;
31091;SDS011;67728;53.122;12.776;2024-02-04T00:28:12;599.50;;;228.75;;
31091;SDS011;67728;53.122;12.776;2024-02-04T00:29:44;597.55;;;219.50;;
31091;SDS011;67728;53.122;12.776;2024-02-04T00:31:16;597.70;;;220.88;;
31091;SDS011;67728;53.122;12.776;2024-02-04T00:32:48;598.67;;;224.13;;
31091;SDS011;67728;53.122;12.776;2024-02-04T00:34:19;599.50;;;225.15;;
31091;SDS011;67728;53.122;12.776;2024-02-04T00:35:50;601.78;;;230.40;;
31091;SDS011;67728;53.122;12.776;2024-02-04T00:37:22;600.97;;;227.88;;
31091;SDS011;67728;53.122;12.776;2024-02-04T00:38:53;602.08;;;236.18;;
31091;SDS011;67728;53.122;12.776;2024-02-04T00:40:24;600.00;;;234.10;;
31091;SDS011;67728;53.122;12.776;2024-02-04T00:41:56;605.55;;;229.95;;
31091;SDS011;67728;53.122;12.776;2024-02-04T00:43:27;597.05;;;230.32;;
31091;SDS011;67728;53.122;12.776;2024-02-04T00:44:58;611.25;;;229.52;;
31091;SDS011;67728;53.122;12.776;2024-02-04T00:46:29;597.90;;;231.43;;
31091;SDS011;67728;53.122;12.776;2024-02-04T00:48:02;608.83;;;237.88;;
31091;SDS011;67728;53.122;12.776;2024-02-04T00:49:33;593.10;;;226.68;;
31091;SDS011;67728;53.122;12.776;2024-02-04T00:51:05;593.80;;;228.65;;
31091;SDS011;67728;53.122;12.776;2024-02-04T00:52:36;596.03;;;232.82;;
31091;SDS011;67728;53.122;12.776;2024-02-04T00:54:07;594.67;;;223.88;;
31091;SDS011;67728;53.122;12.776;2024-02-04T00:55:39;593.20;;;224.35;;
31091;SDS011;67728;53.122;12.776;2024-02-04T00:57:10;592.05;;;220.75;;
31091;SDS011;67728;53.122;12.776;2024-02-04T00:58:41;594.63;;;224.82;;
31091;SDS011;67728;53.122;12.776;2024-02-04T01:00:12;592.33;;;222.13;;
31091;SDS011;67728;53.122;12.776;2024-02-04T01:01:44;588.95;;;211.05;;
31091;SDS011;67728;53.122;12.776;2024-02-04T01:03:16;587.13;;;208.32;;
31091;SDS011;67728;53.122;12.776;2024-02-04T01:04:48;595.30;;;211.90;;
31091;SDS011;67728;53.122;12.776;2024-02-04T01:06:20;588.03;;;207.23;;
31091;SDS011;67728;53.122;12.776;2024-02-04T01:07:52;587.95;;;204.85;;
31091;SDS011;67728;53.122;12.776;2024-02-04T01:09:22;588.28;;;210.98;;
31091;SDS011;67728;53.122;12.776;2024-02-04T01:10:54;591.58;;;210.55;;
31091;SDS011;67728;53.122;12.776;2024-02-04T01:12:25;585.58;;;205.10;;
31091;SDS011;67728;53.122;12.776;2024-02-04T01:13:56;586.28;;;199.00;;
31091;SDS011;67728;53.122;12.776;2024-02-04T01:15:27;587.00;;;196.90;;
31091;SDS011;67728;53.122;12.776;2024-02-04T01:16:59;588.33;;;205.77;;
31091;SDS011;67728;53.122;12.776;2024-02-04T01:18:31;589.25;;;206.15;;
31091;SDS011;67728;53.122;12.776;2024-02-04T01:20:03;587.30;;;199.90;;
31091;SDS011;67728;53.122;12.776;2024-02-04T01:21:35;589.95;;;207.00;;
31091;SDS011;67728;53.122;12.776;2024-02-04T01:23:07;588.75;;;206.48;;
31091;SDS011;67728;53.122;12.776;2024-02-04T01:24:38;590.75;;;211.13;;
31091;SDS011;67728;53.122;12.776;2024-02-04T01:26:10;592.70;;;201.73;;
31091;SDS011;67728;53.122;12.776;2024-02-04T01:27:41;590.70;;;212.38;;
31091;SDS011;67728;53.122;12.776;2024-02-04T01:29:13;590.65;;;207.00;;
31091;SDS011;67728;53.122;12.776;2024-02-04T01:30:43;592.85;;;210.15;;
31091;SDS011;67728;53.122;12.776;2024-02-04T01:32:15;592.92;;;212.82;;
31091;SDS011;67728;53.122;12.776;2024-02-04T01:33:47;595.22;;;208.82;;
31091;SDS011;67728;53.122;12.776;2024-02-04T01:35:19;592.45;;;210.40;;
31091;SDS011;67728;53.122;12.776;2024-02-04T01:36:50;596.33;;;213.50;;
31091;SDS011;67728;53.122;12.776;2024-02-04T01:38:21;593.15;;;213.45;;
31091;SDS011;67728;53.122;12.776;2024-02-04T01:39:52;594.03;;;209.70;;
31091;SDS011;67728;53.122;12.776;2024-02-04T01:41:24;593.83;;;211.60;;
31091;SDS011;67728;53.122;12.776;2024-02-04T01:42:57;593.58;;;200.90;;
31091;SDS011;67728;53.122;12.776;2024-02-04T01:44:29;593.22;;;205.68;;
31091;SDS011;67728;53.122;12.776;2024-02-04T01:45:59;595.67;;;209.13;;
31091;SDS011;67728;53.122;12.776;2024-02-04T01:47:32;593.42;;;208.73;;
31091;SDS011;67728;53.122;12.776;2024-02-04T01:49:04;593.42;;;211.18;;
31091;SDS011;67728;53.122;12.776;2024-02-04T01:50:36;593.05;;;211.07;;
31091;SDS011;67728;53.122;12.776;2024-02-04T01:52:08;595.97;;;210.00;;
31091;SDS011;67728;53.122;12.776;2024-02-04T01:53:40;596.25;;;216.88;;
31091;SDS011;67728;53.122;12.776;2024-02-04T01:55:15;598.42;;;222.18;;
31091;SDS011;67728;53.122;12.776;2024-02-04T01:56:46;597.03;;;224.20;;
31091;SDS011;67728;53.122;12.776;2024-02-04T01:58:18;596.55;;;218.98;;
31091;SDS011;67728;53.122;12.776;2024-02-04T01:59:49;596.65;;;220.95;;
31091;SDS011;67728;53.122;12.776;2024-02-04T02:01:23;600.35;;;208.88;;
31091;SDS011;67728;53.122;12.776;2024-02-04T02:02:54;597.78;;;220.13;;
31091;SDS011;67728;53.122;12.776;2024-02-04T02:04:29;590.78;;;205.50;;
31091;SDS011;67728;53.122;12.776;2024-02-04T02:05:59;589.75;;;204.80;;
31091;SDS011;67728;53.122;12.776;2024-02-04T02:07:31;594.40;;;221.35;;
31091;SDS011;67728;53.122;12.776;2024-02-04T02:09:02;592.15;;;216.10;;
31091;SDS011;67728;53.122;12.776;2024-02-04T02:10:36;591.28;;;210.57;;
31091;SDS011;67728;53.122;12.776;2024-02-04T02:12:07;599.58;;;215.45;;
31091;SDS011;67728;53.122;12.776;2024-02-04T02:13:42;595.47;;;219.50;;
31091;SDS011;67728;53.122;12.776;2024-02-04T02:15:18;594.22;;;211.75;;
31091;SDS011;67728;53.122;12.776;2024-02-04T02:16:53;589.60;;;197.35;;
31091;SDS011;67728;53.122;12.776;2024-02-04T02:18:25;590.85;;;207.10;;
31091;SDS011;67728;53.122;12.776;2024-02-04T02:20:05;590.75;;;202.60;;
31091;SDS011;67728;53.122;12.776;2024-02-04T02:21:44;593.05;;;195.27;;
31091;SDS011;67728;53.122;12.776;2024-02-04T02:23:22;591.78;;;198.52;;
31091;SDS011;67728;53.122;12.776;2024-02-04T02:25:04;590.83;;;196.82;;
31091;SDS011;67728;53.122;12.776;2024-02-04T02:26:36;588.80;;;197.95;;
31091;SDS011;67728;53.122;12.776;2024-02-04T02:28:08;588.03;;;198.18;;
31091;SDS011;67728;53.122;12.776;2024-02-04T02:29:41;591.72;;;201.93;;
31091;SDS011;67728;53.122;12.776;2024-02-04T02:31:12;591.63;;;204.05;;
31091;SDS011;67728;53.122;12.776;2024-02-04T02:32:44;589.35;;;196.38;;
31091;SDS011;67728;53.122;12.776;2024-02-04T02:34:16;583.75;;;179.63;;
31091;SDS011;67728;53.122;12.776;2024-02-04T02:35:49;584.25;;;180.98;;
31091;SDS011;67728;53.122;12.776;2024-02-04T02:37:26;586.97;;;194.30;;
31091;SDS011;67728;53.122;12.776;2024-02-04T02:39:04;593.63;;;190.88;;
31091;SDS011;67728;53.122;12.776;2024-02-04T02:40:43;588.95;;;191.88;;
31091;SDS011;67728;53.122;12.776;2024-02-04T02:42:18;589.08;;;196.77;;
31091;SDS011;67728;53.122;12.776;2024-02-04T02:43:51;590.28;;;190.45;;
31091;SDS011;67728;53.122;12.776;2024-02-04T02:45:25;585.67;;;184.48;;
31091;SDS011;67728;53.122;12.776;2024-02-04T02:46:57;589.00;;;195.02;;
31091;SDS011;67728;53.122;12.776;2024-02-04T02:48:29;582.53;;;176.73;;
31091;SDS011;67728;53.122;12.776;2024-02-04T02:50:00;585.40;;;185.35;;
31091;SDS011;67728;53.122;12.776;2024-02-04T02:51:32;588.78;;;186.90;;
31091;SDS011;67728;53.122;12.776;2024-02-04T02:53:03;580.55;;;173.18;;
31091;SDS011;67728;53.122;12.776;2024-02-04T02:54:34;581.28;;;171.80;;
31091;SDS011;67728;53.122;12.776;2024-02-04T02:56:07;587.83;;;177.68;;
31091;SDS011;67728;53.122;12.776;2024-02-04T02:57:38;591.65;;;183.45;;
31091;SDS011;67728;53.122;12.776;2024-02-04T02:59:09;591.78;;;181.65;;
31091;SDS011;67728;53.122;12.776;2024-02-04T03:00:41;585.72;;;192.38;;
31091;SDS011;67728;53.122;12.776;2024-02-04T03:02:13;588.40;;;199.25;;
31091;SDS011;67728;53.122;12.776;2024-02-04T03:03:44;586.15;;;191.23;;
31091;SDS011;67728;53.122;12.776;2024-02-04T03:05:15;585.25;;;193.23;;
31091;SDS011;67728;53.122;12.776;2024-02-04T03:06:46;589.40;;;202.07;;
31091;SDS011;67728;53.122;12.776;2024-02-04T03:08:18;586.70;;;203.80;;
31091;SDS011;67728;53.122;12.776;2024-02-04T03:09:48;586.05;;;201.77;;
31091;SDS011;67728;53.122;12.776;2024-02-04T03:11:21;582.75;;;189.35;;
31091;SDS011;67728;53.122;12.776;2024-02-04T03:12:53;584.30;;;191.48;;
31091;SDS011;67728;53.122;12.776;2024-02-04T03:14:24;585.88;;;204.40;;
31091;SDS011;67728;53.122;12.776;2024-02-04T03:15:55;586.33;;;204.60;;
31091;SDS011;67728;53.122;12.776;2024-02-04T03:17:26;584.38;;;204.02;;
31091;SDS011;67728;53.122;12.776;2024-02-04T03:18:58;584.65;;;195.80;;
31091;SDS011;67728;53.122;12.776;2024-02-04T03:20:29;586.70;;;200.43;;
31091;SDS011;67728;53.122;12.776;2024-02-04T03:22:00;584.17;;;193.40;;
31091;SDS011;67728;53.122;12.776;2024-02-04T03:23:31;587.10;;;203.23;;
31091;SDS011;67728;53.122;12.776;2024-02-04T03:25:03;586.47;;;199.88;;
31091;SDS011;67728;53.122;12.776;2024-02-04T03:26:35;587.72;;;191.60;;
31091;SDS011;67728;53.122;12.776;2024-02-04T03:28:07;583.67;;;193.48;;
31091;SDS011;67728;53.122;12.776;2024-02-04T03:29:39;580.50;;;181.45;;
31091;SDS011;67728;53.122;12.776;2024-02-04T03:31:09;584.28;;;188.32;;
31091;SDS011;67728;53.122;12.776;2024-02-04T03:32:41;584.45;;;191.75;;
31091;SDS011;67728;53.122;12.776;2024-02-04T03:34:13;585.72;;;194.43;;
31091;SDS011;67728;53.122;12.776;2024-02-04T03:35:43;586.80;;;192.30;;
31091;SDS011;67728;53.122;12.776;2024-02-04T03:37:15;590.45;;;199.32;;
31091;SDS011;67728;53.122;12.776;2024-02-04T03:38:45;596.65;;;200.63;;
31091;SDS011;67728;53.122;12.776;2024-02-04T03:40:17;592.22;;;203.10;;
31091;SDS011;67728;53.122;12.776;2024-02-04T03:41:50;594.70;;;201.85;;
31091;SDS011;67728;53.122;12.776;2024-02-04T03:43:22;599.70;;;197.38;;
31091;SDS011;67728;53.122;12.776;2024-02-04T03:44:53;603.00;;;207.30;;
31091;SDS011;67728;53.122;12.776;2024-02-04T03:46:25;597.65;;;207.50;;
31091;SDS011;67728;53.122;12.776;2024-02-04T03:47:55;592.45;;;191.70;;
31091;SDS011;67728;53.122;12.776;2024-02-04T03:49:27;602.50;;;200.45;;
31091;SDS011;67728;53.122;12.776;2024-02-04T03:50:58;601.50;;;199.73;;
31091;SDS011;67728;53.122;12.776;2024-02-04T03:52:29;586.45;;;195.90;;
31091;SDS011;67728;53.122;12.776;2024-02-04T03:54:01;588.00;;;196.88;;
31091;SDS011;67728;53.122;12.776;2024-02-04T03:55:32;590.00;;;198.75;;
31091;SDS011;67728;53.122;12.776;2024-02-04T03:57:05;587.97;;;196.77;;
31091;SDS011;67728;53.122;12.776;2024-02-04T03:58:36;588.13;;;197.05;;
31091;SDS011;67728;53.122;12.776;2024-02-04T04:00:07;584.30;;;182.38;;
31091;SDS011;67728;53.122;12.776;2024-02-04T04:01:40;590.75;;;198.13;;
31091;SDS011;67728;53.122;12.776;2024-02-04T04:03:10;590.75;;;198.38;;
31091;SDS011;67728;53.122;12.776;2024-02-04T04:04:42;589.67;;;198.43;;
31091;SDS011;67728;53.122;12.776;2024-02-04T04:06:17;590.00;;;197.27;;
31091;SDS011;67728;53.122;12.776;2024-02-04T04:07:49;593.08;;;203.50;;
31091;SDS011;67728;53.122;12.776;2024-02-04T04:09:19;590.50;;;198.35;;
31091;SDS011;67728;53.122;12.776;2024-02-04T04:10:51;588.08;;;195.48;;
31091;SDS011;67728;53.122;12.776;2024-02-04T04:12:23;589.08;;;200.23;;
31091;SDS011;67728;53.122;12.776;2024-02-04T04:13:54;586.03;;;196.35;;
31091;SDS011;67728;53.122;12.776;2024-02-04T04:15:26;586.03;;;198.50;;
31091;SDS011;67728;53.122;12.776;2024-02-04T04:16:57;592.97;;;199.65;;
31091;SDS011;67728;53.122;12.776;2024-02-04T04:18:28;589.05;;;199.73;;
31091;SDS011;67728;53.122;12.776;2024-02-04T04:19:59;588.28;;;206.23;;
31091;SDS011;67728;53.122;12.776;2024-02-04T04:21:31;587.65;;;197.30;;
31091;SDS011;67728;53.122;12.776;2024-02-04T04:23:01;592.05;;;204.98;;
31091;SDS011;67728;53.122;12.776;2024-02-04T04:24:33;596.80;;;206.23;;
31091;SDS011;67728;53.122;12.776;2024-02-04T04:26:05;588.45;;;193.25;;
31091;SDS011;67728;53.122;12.776;2024-02-04T04:27:37;587.55;;;198.25;;
31091;SDS011;67728;53.122;12.776;2024-02-04T04:29:08;587.85;;;198.77;;
31091;SDS011;67728;53.122;12.776;2024-02-04T04:30:40;589.42;;;197.82;;
31091;SDS011;67728;53.122;12.776;2024-02-04T04:32:11;587.55;;;201.88;;
31091;SDS011;67728;53.122;12.776;2024-02-04T04:33:42;586.08;;;195.75;;
31091;SDS011;67728;53.122;12.776;2024-02-04T04:35:13;587.45;;;198.63;;
31091;SDS011;67728;53.122;12.776;2024-02-04T04:36:44;588.70;;;204.13;;
31091;SDS011;67728;53.122;12.776;2024-02-04T04:38:16;589.38;;;206.93;;
31091;SDS011;67728;53.122;12.776;2024-02-04T04:39:47;588.78;;;201.32;;
31091;SDS011;67728;53.122;12.776;2024-02-04T04:41:18;587.08;;;203.48;;
31091;SDS011;67728;53.122;12.776;2024-02-04T04:42:50;590.58;;;210.50;;
31091;SDS011;67728;53.122;12.776;2024-02-04T04:44:22;591.35;;;212.18;;
31091;SDS011;67728;53.122;12.776;2024-02-04T04:45:53;589.47;;;206.98;;
31091;SDS011;67728;53.122;12.776;2024-02-04T04:47:24;586.10;;;199.45;;
31091;SDS011;67728;53.122;12.776;2024-02-04T04:48:55;588.30;;;201.55;;
31091;SDS011;67728;53.122;12.776;2024-02-04T04:50:28;584.95;;;196.88;;
31091;SDS011;67728;53.122;12.776;2024-02-04T04:51:58;587.33;;;200.95;;
31091;SDS011;67728;53.122;12.776;2024-02-04T04:53:30;588.10;;;202.18;;
31091;SDS011;67728;53.122;12.776;2024-02-04T04:55:01;585.97;;;195.82;;
31091;SDS011;67728;53.122;12.776;2024-02-04T04:56:37;590.30;;;214.65;;
31091;SDS011;67728;53.122;12.776;2024-02-04T04:58:10;588.80;;;205.90;;
31091;SDS011;67728;53.122;12.776;2024-02-04T04:59:41;586.17;;;195.73;;
31091;SDS011;67728;53.122;12.776;2024-02-04T05:01:13;588.28;;;196.95;;
31091;SDS011;67728;53.122;12.776;2024-02-04T05:02:44;579.70;;;176.70;;
31091;SDS011;67728;53.122;12.776;2024-02-04T05:04:16;580.90;;;176.63;;
31091;SDS011;67728;53.122;12.776;2024-02-04T05:05:48;589.03;;;202.98;;
31091;SDS011;67728;53.122;12.776;2024-02-04T05:07:19;586.40;;;197.20;;
31091;SDS011;67728;53.122;12.776;2024-02-04T05:08:51;588.80;;;199.65;;
31091;SDS011;67728;53.122;12.776;2024-02-04T05:10:22;587.15;;;202.93;;
31091;SDS011;67728;53.122;12.776;2024-02-04T05:11:54;593.20;;;205.43;;
31091;SDS011;67728;53.122;12.776;2024-02-04T05:13:26;588.85;;;210.82;;
31091;SDS011;67728;53.122;12.776;2024-02-04T05:14:57;588.28;;;207.38;;
31091;SDS011;67728;53.122;12.776;2024-02-04T05:16:28;588.08;;;211.30;;
31091;SDS011;67728;53.122;12.776;2024-02-04T05:18:00;586.03;;;202.80;;
31091;SDS011;67728;53.122;12.776;2024-02-04T05:19:30;586.85;;;210.38;;
31091;SDS011;67728;53.122;12.776;2024-02-04T05:21:02;595.72;;;207.75;;
31091;SDS011;67728;53.122;12.776;2024-02-04T05:22:33;587.92;;;208.68;;
31091;SDS011;67728;53.122;12.776;2024-02-04T05:24:05;589.33;;;215.32;;
31091;SDS011;67728;53.122;12.776;2024-02-04T05:25:35;586.92;;;205.15;;
31091;SDS011;67728;53.122;12.776;2024-02-04T05:27:07;588.83;;;204.13;;
31091;SDS011;67728;53.122;12.776;2024-02-04T05:28:39;583.80;;;199.32;;
31091;SDS011;67728;53.122;12.776;2024-02-04T05:30:11;585.65;;;203.50;;
31091;SDS011;67728;53.122;12.776;2024-02-04T05:31:43;584.58;;;199.00;;
31091;SDS011;67728;53.122;12.776;2024-02-04T05:33:14;586.85;;;206.88;;
31091;SDS011;67728;53.122;12.776;2024-02-04T05:34:45;589.50;;;204.40;;
31091;SDS011;67728;53.122;12.776;2024-02-04T05:36:17;586.25;;;203.27;;
31091;SDS011;67728;53.122;12.776;2024-02-04T05:37:47;586.33;;;202.75;;
31091;SDS011;67728;53.122;12.776;2024-02-04T05:39:19;583.95;;;195.40;;
31091;SDS011;67728;53.122;12.776;2024-02-04T05:40:50;585.90;;;201.38;;
31091;SDS011;67728;53.122;12.776;2024-02-04T05:42:21;589.40;;;198.75;;
31091;SDS011;67728;53.122;12.776;2024-02-04T05:43:53;586.60;;;202.82;;
31091;SDS011;67728;53.122;12.776;2024-02-04T05:45:25;587.70;;;201.88;;
31091;SDS011;67728;53.122;12.776;2024-02-04T05:46:56;587.40;;;210.13;;
31091;SDS011;67728;53.122;12.776;2024-02-04T05:48:27;588.47;;;209.00;;
31091;SDS011;67728;53.122;12.776;2024-02-04T05:49:58;587.28;;;208.40;;
31091;SDS011;67728;53.122;12.776;2024-02-04T05:51:30;586.88;;;205.52;;
31091;SDS011;67728;53.122;12.776;2024-02-04T05:53:02;593.42;;;211.35;;
31091;SDS011;67728;53.122;12.776;2024-02-04T05:54:36;593.10;;;223.27;;
31091;SDS011;67728;53.122;12.776;2024-02-04T05:56:08;590.78;;;214.82;;
31091;SDS011;67728;53.122;12.776;2024-02-04T05:57:40;590.08;;;218.40;;
31091;SDS011;67728;53.122;12.776;2024-02-04T05:59:12;585.78;;;203.50;;
31091;SDS011;67728;53.122;12.776;2024-02-04T06:00:43;588.47;;;210.05;;
31091;SDS011;67728;53.122;12.776;2024-02-04T06:02:15;586.63;;;204.30;;
31091;SDS011;67728;53.122;12.776;2024-02-04T06:03:46;580.65;;;187.82;;
31091;SDS011;67728;53.122;12.776;2024-02-04T06:05:17;582.38;;;186.95;;
31091;SDS011;67728;53.122;12.776;2024-02-04T06:06:48;585.83;;;198.32;;
31091;SDS011;67728;53.122;12.776;2024-02-04T06:08:20;585.78;;;199.13;;
31091;SDS011;67728;53.122;12.776;2024-02-04T06:09:51;584.90;;;191.70;;
31091;SDS011;67728;53.122;12.776;2024-02-04T06:11:22;585.80;;;199.55;;
31091;SDS011;67728;53.122;12.776;2024-02-04T06:12:54;586.80;;;197.52;;
31091;SDS011;67728;53.122;12.776;2024-02-04T06:14:26;587.50;;;204.77;;
31091;SDS011;67728;53.122;12.776;2024-02-04T06:15:57;585.53;;;196.18;;
31091;SDS011;67728;53.122;12.776;2024-02-04T06:17:28;587.00;;;197.65;;
31091;SDS011;67728;53.122;12.776;2024-02-04T06:19:00;584.80;;;194.55;;
31091;SDS011;67728;53.122;12.776;2024-02-04T06:20:30;583.67;;;191.55;;
31091;SDS011;67728;53.122;12.776;2024-02-04T06:22:02;584.40;;;189.00;;
31091;SDS011;67728;53.122;12.776;2024-02-04T06:23:33;584.42;;;193.20;;
31091;SDS011;67728;53.122;12.776;2024-02-04T06:25:05;585.30;;;196.65;;
31091;SDS011;67728;53.122;12.776;2024-02-04T06:26:37;583.60;;;191.77;;
31091;SDS011;67728;53.122;12.776;2024-02-04T06:28:09;585.88;;;197.73;;
31091;SDS011;67728;53.122;12.776;2024-02-04T06:29:42;582.88;;;190.70;;
31091;SDS011;67728;53.122;12.776;2024-02-04T06:31:13;583.67;;;185.18;;
31091;SDS011;67728;53.122;12.776;2024-02-04T06:32:44;587.13;;;197.77;;
31091;SDS011;67728;53.122;12.776;2024-02-04T06:34:16;584.60;;;189.88;;
31091;SDS011;67728;53.122;12.776;2024-02-04T06:38:13;623.80;;;194.60;;
31091;SDS011;67728;53.122;12.776;2024-02-04T06:39:45;626.05;;;197.63;;
31091;SDS011;67728;53.122;12.776;2024-02-04T06:41:15;608.55;;;192.15;;
31091;SDS011;67728;53.122;12.776;2024-02-04T06:42:47;587.92;;;186.57;;
31091;SDS011;67728;53.122;12.776;2024-02-04T06:44:18;605.35;;;185.68;;
31091;SDS011;67728;53.122;12.776;2024-02-04T06:45:51;607.17;;;187.73;;
31091;SDS011;67728;53.122;12.776;2024-02-04T06:47:22;637.25;;;196.05;;
31091;SDS011;67728;53.122;12.776;2024-02-04T06:48:53;612.70;;;195.13;;
31091;SDS011;67728;53.122;12.776;2024-02-04T06:50:24;608.15;;;189.82;;
31091;SDS011;67728;53.122;12.776;2024-02-04T06:51:55;632.88;;;186.68;;
31091;SDS011;67728;53.122;12.776;2024-02-04T06:53:27;708.53;;;189.20;;
31091;SDS011;67728;53.122;12.776;2024-02-04T06:54:59;696.63;;;193.60;;
31091;SDS011;67728;53.122;12.776;2024-02-04T06:56:31;598.17;;;173.80;;
31091;SDS011;67728;53.122;12.776;2024-02-04T06:58:01;590.38;;;164.05;;
31091;SDS011;67728;53.122;12.776;2024-02-04T06:59:33;648.42;;;177.93;;
31091;SDS011;67728;53.122;12.776;2024-02-04T07:01:05;578.90;;;169.95;;
31091;SDS011;67728;53.122;12.776;2024-02-04T07:02:37;577.03;;;161.38;;
31091;SDS011;67728;53.122;12.776;2024-02-04T07:04:08;586.67;;;194.02;;
31091;SDS011;67728;53.122;12.776;2024-02-04T07:05:40;585.55;;;186.20;;
31091;SDS011;67728;53.122;12.776;2024-02-04T07:07:12;585.90;;;189.45;;
31091;SDS011;67728;53.122;12.776;2024-02-04T07:08:44;591.25;;;194.13;;
31091;SDS011;67728;53.122;12.776;2024-02-04T07:10:14;585.40;;;191.35;;
31091;SDS011;67728;53.122;12.776;2024-02-04T07:11:46;582.50;;;188.75;;
31091;SDS011;67728;53.122;12.776;2024-02-04T07:13:18;588.97;;;194.35;;
31091;SDS011;67728;53.122;12.776;2024-02-04T07:14:49;595.03;;;192.38;;
31091;SDS011;67728;53.122;12.776;2024-02-04T07:16:22;588.38;;;195.40;;
31091;SDS011;67728;53.122;12.776;2024-02-04T07:17:52;596.17;;;190.55;;
31091;SDS011;67728;53.122;12.776;2024-02-04T07:19:24;588.97;;;201.13;;
31091;SDS011;67728;53.122;12.776;2024-02-04T07:20:55;596.67;;;205.73;;
31091;SDS011;67728;53.122;12.776;2024-02-04T07:22:26;590.58;;;201.98;;
31091;SDS011;67728;53.122;12.776;2024-02-04T07:23:57;586.78;;;196.43;;
31091;SDS011;67728;53.122;12.776;2024-02-04T07:25:34;588.13;;;198.18;;
31091;SDS011;67728;53.122;12.776;2024-02-04T07:27:05;587.38;;;195.48;;
31091;SDS011;67728;53.122;12.776;2024-02-04T07:28:37;584.08;;;190.18;;
31091;SDS011;67728;53.122;12.776;2024-02-04T07:30:08;587.33;;;200.48;;
31091;SDS011;67728;53.122;12.776;2024-02-04T07:31:41;587.75;;;198.65;;
31091;SDS011;67728;53.122;12.776;2024-02-04T07:33:13;598.45;;;196.65;;
31091;SDS011;67728;53.122;12.776;2024-02-04T07:34:44;586.10;;;191.45;;
31091;SDS011;67728;53.122;12.776;2024-02-04T07:36:15;589.20;;;202.32;;
31091;SDS011;67728;53.122;12.776;2024-02-04T07:37:46;585.13;;;196.50;;
31091;SDS011;67728;53.122;12.776;2024-02-04T07:39:18;585.33;;;195.63;;
31091;SDS011;67728;53.122;12.776;2024-02-04T07:40:48;586.15;;;197.27;;
31091;SDS011;67728;53.122;12.776;2024-02-04T07:42:20;586.10;;;198.48;;
31091;SDS011;67728;53.122;12.776;2024-02-04T07:43:51;587.70;;;200.98;;
31091;SDS011;67728;53.122;12.776;2024-02-04T07:45:23;595.47;;;203.48;;
31091;SDS011;67728;53.122;12.776;2024-02-04T07:46:55;596.25;;;205.68;;
31091;SDS011;67728;53.122;12.776;2024-02-04T07:48:27;594.70;;;202.02;;
31091;SDS011;67728;53.122;12.776;2024-02-04T07:49:58;597.88;;;214.07;;
31091;SDS011;67728;53.122;12.776;2024-02-04T07:51:29;610.97;;;212.60;;
31091;SDS011;67728;53.122;12.776;2024-02-04T07:53:01;598.92;;;210.00;;
31091;SDS011;67728;53.122;12.776;2024-02-04T07:54:33;599.95;;;215.63;;
31091;SDS011;67728;53.122;12.776;2024-02-04T07:56:04;596.13;;;210.02;;
31091;SDS011;67728;53.122;12.776;2024-02-04T07:57:36;597.05;;;209.02;;
31091;SDS011;67728;53.122;12.776;2024-02-04T07:59:07;599.08;;;216.68;;
31091;SDS011;67728;53.122;12.776;2024-02-04T08:00:39;606.53;;;209.50;;
31091;SDS011;67728;53.122;12.776;2024-02-04T08:02:11;599.20;;;215.00;;
31091;SDS011;67728;53.122;12.776;2024-02-04T08:03:43;595.05;;;205.68;;
31091;SDS011;67728;53.122;12.776;2024-02-04T08:05:14;594.63;;;215.32;;
31091;SDS011;67728;53.122;12.776;2024-02-04T08:06:45;594.20;;;210.27;;
31091;SDS011;67728;53.122;12.776;2024-02-04T08:08:16;599.08;;;215.70;;
31091;SDS011;67728;53.122;12.776;2024-02-04T08:09:48;618.92;;;221.10;;
31091;SDS011;67728;53.122;12.776;2024-02-04T08:11:20;596.65;;;218.82;;
31091;SDS011;67728;53.122;12.776;2024-02-04T08:12:51;615.47;;;218.60;;
31091;SDS011;67728;53.122;12.776;2024-02-04T08:14:23;603.97;;;217.93;;
31091;SDS011;67728;53.122;12.776;2024-02-04T08:15:54;600.33;;;214.93;;
31091;SDS011;67728;53.122;12.776;2024-02-04T08:17:27;602.67;;;218.70;;
31091;SDS011;67728;53.122;12.776;2024-02-04T08:19:00;619.60;;;213.90;;
31091;SDS011;67728;53.122;12.776;2024-02-04T08:20:32;597.22;;;211.52;;
31091;SDS011;67728;53.122;12.776;2024-02-04T08:22:05;594.50;;;221.38;;
31091;SDS011;67728;53.122;12.776;2024-02-04T08:23:38;592.88;;;216.95;;
31091;SDS011;67728;53.122;12.776;2024-02-04T08:25:09;598.80;;;209.43;;
31091;SDS011;67728;53.122;12.776;2024-02-04T08:28:24;594.70;;;221.15;;
31091;SDS011;67728;53.122;12.776;2024-02-04T08:29:55;609.03;;;214.25;;
31091;SDS011;67728;53.122;12.776;2024-02-04T08:31:26;600.95;;;216.63;;
31091;SDS011;67728;53.122;12.776;2024-02-04T08:32:58;593.05;;;219.32;;
31091;SDS011;67728;53.122;12.776;2024-02-04T08:34:30;591.38;;;211.15;;
31091;SDS011;67728;53.122;12.776;2024-02-04T08:36:01;596.80;;;211.98;;
31091;SDS011;67728;53.122;12.776;2024-02-04T08:37:33;593.65;;;214.70;;